SKBG/BGA METAR and TAF weather

Enter ICAO airport designator
Station Type Date Time Source
SKBG METAR 2020/09/27 16:00 UTC NOAA

SKBG 271600Z 35004KT 9999 FEW010 BKN100 25/18 A3003


Station Type Date Time Source
SKBG Decoded METAR 2020/09/27 16:00 UTC NOAA

Bucaramanga / Palonegro, Colombia (SKBG) 07-06N 073-12W
Sep 27, 2020 - 12:00 PM EDT / 2020.09.27 1600 UTC
Wind: from the N (350 degrees) at 5 MPH (4 KT):0
Visibility: greater than 7 mile(s):0
Sky conditions: mostly cloudy
Temperature: 77 F (25 C)
Dew Point: 64 F (18 C)
Relative Humidity: 65%
Pressure (altimeter): 30.03 in. Hg (1016 hPa)
ob: SKBG 271600Z 35004KT 9999 FEW010 BKN100 25/18 A3003
cycle: 16

Station Type Date Time Source
SKBG TAF 2020/09/27 12:33 UTC NOAA

TAF TAF SKBG 271030Z 2712/2812 VRB02KT 9999 SCT010 SCT070
BECMG 2714/2716 33006KT
TEMPO 2721/2724 6000 RA SCT010TCU BKN070 TX27/2719Z TN18/2811Z

Example: see airport list